Hlavní strana
METAR-TAF:

METAR-TAF

Letiště :

Irene, Jihoafrická republika

zeměpisná šířka: 25-54-36S, zeměpisná délka: 28-12-40E, výška: 1523 m

Aktuální stav počasí

Zpráva byla vytvořena před 8 hodinami a 53 minutami, v 16:33 UTC
Východní vítr 4 kt
Teplota 18°C
Vlhkost vzduchu 88%
Tlak 1017 hPa
Viditelnost 10 km a více
Polojasno ve výšce 800 ft
Oblačno až skoro zataženo ve výšce 2500 ft
mrholení, déšť

METAR: FAIR 071633Z 09004KT 9999 DZRA SCT008 BKN025 18/16 Q1017

Čas: 03:26 (01:26 UTC)


TAF: chybějící

Stav a předpovědi počasí z více než 4 000 letišť (zprávy METAR a TAF).

Červené a žluté tečky na mapě představují dostupné meteorologické stanice.

Když kurzor umístíte na tečku, zobrazí se název stanice.

Pak kliknutím zobrazíte stav a předpověď počasí.

Chcete-li změnit mapu, kliknutím na zelené tlačítko se znaménkem +mapu přiblížíte, kliknutím na zelené tlačítko se znaménkem – mapu oddálíte a kliknutím na zelené šipky přejdete na sousední mapy.


METAR-TAF: